Seaside, Oregon
Current Conditions -  °F | °C
As of 2:55 PM on Wednesday 22 Oct 2014 (Local Time) from KAST Reporting Station
Light Rain Light Rain  
Wind Chill: 57°   Ceiling: 8000
Heat Index: 57°   Visibility: 5mi
Dew Point: 54°   Wind: 9mph
Humidity: 89%   Direction: 150°SSE
Pressure: 29.61"   Gusts: NA
Location:  45.99°N, 123.91°W
Report Text: KAST 222155Z AUTO 15008KT 5SM -RA BR FEW065 OVC080 14/12 A2961 RMK AO2 SLP026 P0014 T01390122
Loading
Personal Weather Stations






























Interactive Weather Map New forecast layout! Learn more

10-Day Weather Forecast

Advertisements
Track Severe Weather on mobile